Time;durP1;ratioP1;P1;durP2;ratioP2;P2;SDS_P1;SDS_P2;PMS_P1;PMS_P2;Temp;Humidity;BMP_temperature;BMP_pressure;BME280_temperature;BME280_humidity;BME280_pressure;Samples;Min_cycle;Max_cycle;Signal;HPM_P1;HPM_P2
2023/02/20 00:00:36;;;;;;;17.77;7.35;;;;;;;-143.48;94.34;118439.88;5015262;28;20389;-72
2023/02/20 00:03:02;;;;;;;13.65;7.22;;;;;;;-143.48;94.38;118439.88;5033222;28;20477;-72
2023/02/20 00:05:27;;;;;;;14.15;7.40;;;;;;;-143.48;94.89;118439.88;5015384;28;20021;-72
2023/02/20 00:07:53;;;;;;;15.82;7.22;;;;;;;-143.48;94.13;118439.88;5033021;28;20036;-72
2023/02/20 00:10:18;;;;;;;16.05;7.90;;;;;;;-143.48;94.51;118439.88;5032972;28;20032;-72
2023/02/20 00:12:44;;;;;;;18.25;8.55;;;;;;;-143.48;94.40;118439.88;5031692;28;20047;-72
2023/02/20 00:15:12;;;;;;;20.23;8.80;;;;;;;-143.48;94.18;118439.88;5032928;28;20025;-72
2023/02/20 00:17:38;;;;;;;16.15;8.23;;;;;;;-143.48;94.49;118439.88;5032955;28;20021;-72
2023/02/20 00:20:03;;;;;;;19.05;8.65;;;;;;;-143.48;94.40;118439.88;5033000;28;20029;-72
2023/02/20 00:22:29;;;;;;;15.30;7.70;;;;;;;-143.48;94.77;118439.88;5015111;28;20048;-72
2023/02/20 00:24:54;;;;;;;18.98;8.45;;;;;;;-143.48;94.85;118439.88;5015235;28;20484;-71
2023/02/20 00:27:19;;;;;;;19.63;8.23;;;;;;;-143.48;94.60;118439.88;5032859;28;20036;-71
2023/02/20 00:29:46;;;;;;;19.08;8.40;;;;;;;-143.48;94.62;118439.88;5032760;28;20033;-72
2023/02/20 00:32:12;;;;;;;15.13;9.38;;;;;;;-143.48;94.45;118439.88;5015005;28;20017;-71
2023/02/20 00:34:37;;;;;;;19.20;8.65;;;;;;;-143.48;94.95;118439.88;5032940;28;20079;-72
2023/02/20 00:37:03;;;;;;;18.70;8.55;;;;;;;-143.48;94.64;118439.88;5032949;28;20022;-72
2023/02/20 00:39:30;;;;;;;18.80;9.25;;;;;;;-143.48;95.00;118439.88;5032826;28;20022;-71
2023/02/20 00:41:56;;;;;;;20.92;8.95;;;;;;;-143.48;94.83;118439.88;5032810;28;20021;-72
2023/02/20 00:44:21;;;;;;;17.42;8.38;;;;;;;-143.48;95.15;118439.88;5032483;28;20045;-71
2023/02/20 00:46:47;;;;;;;19.58;8.90;;;;;;;-143.48;94.56;118439.88;5015078;28;20551;-72
2023/02/20 00:49:12;;;;;;;20.23;9.25;;;;;;;-143.48;94.90;118439.88;5032829;28;20034;-71
2023/02/20 00:51:38;;;;;;;22.08;9.13;;;;;;;-143.48;94.92;118439.88;5016926;28;20044;-72
2023/02/20 00:54:03;;;;;;;21.02;9.23;;;;;;;-143.48;95.00;118439.88;5018767;28;20403;-72
2023/02/20 00:56:28;;;;;;;24.17;9.07;;;;;;;-143.48;95.14;118439.88;5036431;28;20088;-72
2023/02/20 00:58:54;;;;;;;19.08;8.98;;;;;;;-143.48;95.36;118439.88;5018701;28;20032;-72
2023/02/20 01:01:19;;;;;;;17.50;8.80;;;;;;;-143.48;95.48;118439.88;5036577;28;20026;-72
2023/02/20 01:03:44;;;;;;;18.20;8.93;;;;;;;-143.48;95.59;118439.88;5018825;28;20047;-72
2023/02/20 01:06:10;;;;;;;18.33;8.90;;;;;;;-143.48;95.70;118439.88;5035703;28;20049;-72
2023/02/20 01:08:35;;;;;;;22.92;9.30;;;;;;;-143.48;95.93;118439.88;5036542;28;20040;-72
2023/02/20 01:11:01;;;;;;;18.92;9.10;;;;;;;-143.48;95.86;118439.88;5036577;28;20048;-73
2023/02/20 01:13:26;;;;;;;16.80;8.63;;;;;;;-143.48;96.28;118439.88;5036302;28;20025;-72
2023/02/20 01:15:51;;;;;;;14.70;8.20;;;;;;;-143.48;96.23;118439.88;5036232;28;20014;-72
2023/02/20 01:18:17;;;;;;;18.25;8.52;;;;;;;-143.48;96.26;118439.88;5035990;28;20017;-73
2023/02/20 01:20:43;;;;;;;21.77;9.98;;;;;;;-143.48;96.18;118439.88;5036040;28;20048;-72
2023/02/20 01:23:08;;;;;;;17.02;8.82;;;;;;;-143.48;96.85;118439.88;5035958;28;20048;-72
2023/02/20 01:25:34;;;;;;;20.50;9.32;;;;;;;-143.48;96.73;118439.88;5035901;28;20389;-72
2023/02/20 01:27:59;;;;;;;17.77;8.75;;;;;;;-143.48;97.04;118439.88;5035840;28;20492;-72
2023/02/20 01:30:24;;;;;;;19.10;9.50;;;;;;;-143.48;96.98;118439.88;5018055;28;20570;-72
2023/02/20 01:32:49;;;;;;;19.95;9.02;;;;;;;-143.48;97.07;118439.88;5035730;28;20483;-72
2023/02/20 01:35:15;;;;;;;21.63;9.23;;;;;;;-143.48;97.05;118439.88;5035859;28;20025;-72
2023/02/20 01:37:42;;;;;;;19.30;8.90;;;;;;;-143.48;97.63;118439.88;5035718;28;20045;-72
2023/02/20 01:40:17;;;;;;;21.50;9.45;;;;;;;-143.48;97.87;118439.88;5017959;28;20028;-73
2023/02/20 01:42:42;;;;;;;21.95;9.30;;;;;;;-143.48;98.13;118439.88;5017859;28;20378;-72
2023/02/20 01:45:18;;;;;;;18.13;9.02;;;;;;;-143.48;98.09;118439.88;5035340;28;20156;-72
2023/02/20 01:47:43;;;;;;;22.98;9.88;;;;;;;-143.48;98.20;118439.88;5035387;28;20090;-72
2023/02/20 01:50:09;;;;;;;21.23;9.95;;;;;;;-143.48;98.43;118439.88;5035345;28;20025;-72
2023/02/20 01:52:37;;;;;;;23.20;10.35;;;;;;;-143.48;98.23;118439.88;5036041;28;20058;-72
2023/02/20 01:55:22;;;;;;;26.83;11.02;;;;;;;-143.48;98.74;118439.88;5035432;28;20018;-72
2023/02/20 01:57:57;;;;;;;28.42;11.52;;;;;;;-143.48;98.68;118439.88;5035295;28;20388;-72
2023/02/20 02:00:23;;;;;;;24.15;10.07;;;;;;;-143.48;98.94;118439.88;5034720;28;20025;-72
2023/02/20 02:02:59;;;;;;;23.30;10.50;;;;;;;-143.48;98.68;118439.88;5035194;28;20028;-72
2023/02/20 02:05:25;;;;;;;24.58;10.13;;;;;;;-143.48;98.78;118439.88;5035158;28;20028;-72
2023/02/20 02:07:51;;;;;;;22.92;11.20;;;;;;;-143.48;98.85;118439.88;5035166;28;20029;-72
2023/02/20 02:10:23;;;;;;;22.20;10.88;;;;;;;-143.48;98.65;118439.88;5035100;28;20518;-72
2023/02/20 02:12:52;;;;;;;25.40;11.88;;;;;;;-143.48;99.03;118439.88;5033827;28;20022;-72
2023/02/20 02:15:19;;;;;;;32.08;13.20;;;;;;;-143.48;99.29;118439.88;5034985;28;20021;-72
2023/02/20 02:17:44;;;;;;;27.48;13.25;;;;;;;-143.48;99.66;118439.88;5034819;28;20029;-71
2023/02/20 02:20:09;;;;;;;33.63;16.48;;;;;;;-143.48;99.94;118439.88;5015975;28;20033;-72
2023/02/20 02:23:10;;;;;;;37.72;15.98;;;;;;;-143.48;100.00;118439.88;5034194;28;20034;-72
2023/02/20 02:26:03;;;;;;;33.35;15.73;;;;;;;-143.48;100.00;118439.88;4966568;28;20037;-72
2023/02/20 02:28:43;;;;;;;36.72;17.27;;;;;;;-143.48;100.00;118439.88;5023464;28;20034;-72
2023/02/20 02:31:22;;;;;;;36.65;18.10;;;;;;;-143.48;100.00;118439.88;5016897;28;20083;-72
2023/02/20 02:34:02;;;;;;;40.08;17.63;;;;;;;-143.48;100.00;118439.88;5034570;28;20057;-71
2023/02/20 02:36:51;;;;;;;39.50;18.13;;;;;;;-143.48;100.00;118439.88;5034345;28;20040;-72
2023/02/20 02:39:41;;;;;;;45.05;19.30;;;;;;;-143.48;100.00;118439.88;5016761;28;20021;-72
2023/02/20 02:42:36;;;;;;;47.95;19.35;;;;;;;-143.48;100.00;118439.88;5016725;28;20029;-72
2023/02/20 02:45:22;;;;;;;39.20;18.85;;;;;;;-143.48;100.00;118439.88;5033534;28;20045;-72
2023/02/20 02:48:01;;;;;;;51.17;19.55;;;;;;;-143.48;100.00;118439.88;5032192;28;20025;-73
2023/02/20 02:50:37;;;;;;;48.08;18.85;;;;;;;-143.48;100.00;118439.88;5015649;28;20503;-72
2023/02/20 02:53:05;;;;;;;49.72;20.15;;;;;;;-143.48;100.00;118439.88;5014687;28;20029;-73
2023/02/20 02:55:32;;;;;;;42.28;20.40;;;;;;;-143.48;100.00;118439.88;5033286;28;20047;-73
2023/02/20 02:57:58;;;;;;;45.10;20.20;;;;;;;-143.48;100.00;118439.88;5033324;28;20013;-71
2023/02/20 03:00:29;;;;;;;49.90;21.08;;;;;;;-143.48;100.00;118439.88;5031977;28;20040;-71
2023/02/20 03:03:03;;;;;;;47.95;21.30;;;;;;;-143.48;100.00;118439.88;5033173;28;20477;-71
2023/02/20 03:05:39;;;;;;;51.72;21.92;;;;;;;-143.48;100.00;118439.88;5015580;28;20457;-71
2023/02/20 03:08:13;;;;;;;52.63;21.73;;;;;;;-143.48;100.00;118439.88;5033003;28;20022;-71
2023/02/20 03:10:41;;;;;;;47.85;21.50;;;;;;;-143.48;100.00;118439.88;5015429;28;20079;-71
2023/02/20 03:13:11;;;;;;;53.20;23.33;;;;;;;-143.48;100.00;118439.88;5032834;28;20033;-72
2023/02/20 03:15:48;;;;;;;49.72;22.17;;;;;;;-143.48;100.00;118439.88;5014953;28;20028;-71
2023/02/20 03:18:38;;;;;;;57.88;23.05;;;;;;;-143.48;100.00;118439.88;5032856;28;20052;-72
2023/02/20 03:21:19;;;;;;;49.28;22.58;;;;;;;-143.48;100.00;118439.88;5031716;28;20036;-71
2023/02/20 03:23:50;;;;;;;45.05;22.30;;;;;;;-143.48;100.00;118439.88;5032893;28;20412;-72
2023/02/20 03:26:22;;;;;;;53.65;22.75;;;;;;;-143.48;100.00;118439.88;5032884;28;20053;-71
2023/02/20 03:28:55;;;;;;;46.70;22.30;;;;;;;-143.48;100.00;118439.88;5032708;28;20495;-71
2023/02/20 03:31:30;;;;;;;50.10;22.27;;;;;;;-143.48;100.00;118439.88;5031526;28;20111;-71
2023/02/20 03:45:39;;;;;;;52.55;21.83;;;;;;;-143.48;100.00;118439.88;5111478;27;20376;-35
2023/02/20 03:48:13;;;;;;;50.05;22.45;;;;;;;-143.48;100.00;118439.88;5110212;28;20071;-35
2023/02/20 03:50:38;;;;;;;50.55;23.05;;;;;;;-143.48;100.00;118439.88;5111797;28;20027;-35
2023/02/20 03:53:03;;;;;;;44.63;21.20;;;;;;;-143.48;100.00;118439.88;5111538;28;20027;-35
2023/02/20 03:55:29;;;;;;;48.35;22.55;;;;;;;-143.48;100.00;118439.88;5111786;28;20016;-35
2023/02/20 03:57:59;;;;;;;48.03;22.42;;;;;;;-143.48;100.00;118439.88;5111545;28;20077;-35
2023/02/20 04:00:30;;;;;;;56.50;22.27;;;;;;;-143.48;100.00;118439.88;5111486;28;20066;-35
2023/02/20 04:03:02;;;;;;;46.10;20.50;;;;;;;-143.48;100.00;118439.88;5111286;28;20028;-35
2023/02/20 04:05:32;;;;;;;44.67;20.75;;;;;;;-143.48;100.00;118439.88;5110502;28;20055;-35
2023/02/20 04:08:22;;;;;;;52.20;21.27;;;;;;;-143.48;100.00;118439.88;5111634;28;20078;-35
2023/02/20 04:11:02;;;;;;;45.63;20.88;;;;;;;-143.48;100.00;118439.88;5111244;28;20035;-34
2023/02/20 04:13:29;;;;;;;53.97;20.52;;;;;;;-143.48;100.00;118439.88;5111107;28;20031;-35
2023/02/20 04:15:58;;;;;;;39.53;19.48;;;;;;;-143.48;100.00;118439.88;5109621;28;20015;-34
2023/02/20 04:18:24;;;;;;;40.75;18.67;;;;;;;-143.48;100.00;118439.88;5111085;28;20420;-35
2023/02/20 04:20:53;;;;;;;42.13;18.10;;;;;;;-143.48;100.00;118439.88;5111079;28;20016;-35
2023/02/20 04:23:21;;;;;;;46.10;17.85;;;;;;;-143.48;100.00;118439.88;5111156;28;20024;-35
2023/02/20 04:25:52;;;;;;;48.38;17.17;;;;;;;-143.48;100.00;118439.88;5110918;28;20408;-35
2023/02/20 04:28:19;;;;;;;40.45;17.00;;;;;;;-143.48;100.00;118439.88;5110922;28;20020;-35
2023/02/20 04:30:45;;;;;;;34.60;15.98;;;;;;;-143.48;99.86;118439.88;5110867;28;20028;-35
2023/02/20 04:33:13;;;;;;;38.20;14.93;;;;;;;-143.48;100.00;118439.88;5110569;28;20028;-34
2023/02/20 04:35:38;;;;;;;32.33;14.35;;;;;;;-143.48;99.84;118439.88;5109740;28;20031;-35
2023/02/20 04:38:04;;;;;;;40.78;14.02;;;;;;;-143.48;100.00;118439.88;5110531;28;20024;-35
2023/02/20 04:40:29;;;;;;;38.45;15.32;;;;;;;-143.48;99.96;118439.88;5110661;28;20485;-35
2023/02/20 04:42:55;;;;;;;40.35;13.18;;;;;;;-143.48;99.61;118439.88;5110642;28;20159;-34
2023/02/20 04:45:20;;;;;;;41.17;13.40;;;;;;;-143.48;99.40;118439.88;5110034;28;20389;-34
2023/02/20 04:47:46;;;;;;;36.75;13.93;;;;;;;-143.48;99.43;118439.88;5110517;28;20019;-33
2023/02/20 04:50:29;;;;;;;37.20;12.10;;;;;;;-143.48;99.33;118439.88;5110761;28;20047;-34
2023/02/20 04:52:55;;;;;;;32.00;12.60;;;;;;;-143.48;99.17;118439.88;5110708;28;20034;-35
2023/02/20 04:55:20;;;;;;;39.13;12.88;;;;;;;-143.48;98.99;118439.88;5105606;28;20024;-35
2023/02/20 04:57:46;;;;;;;36.30;11.98;;;;;;;-143.48;99.16;118439.88;5096422;28;20024;-35
2023/02/20 05:00:14;;;;;;;31.55;12.05;;;;;;;-143.48;99.09;118439.88;5096379;28;20028;-35
2023/02/20 05:02:40;;;;;;;33.97;12.13;;;;;;;-143.48;99.04;118439.88;5097240;28;20028;-35
2023/02/20 05:05:13;;;;;;;33.92;11.15;;;;;;;-143.48;98.65;118439.88;5096303;28;20179;-34
2023/02/20 05:07:39;;;;;;;33.08;12.30;;;;;;;-143.48;98.40;118439.88;5096278;28;20035;-35
2023/02/20 05:10:04;;;;;;;36.55;11.75;;;;;;;-143.48;98.68;118439.88;5096799;28;20028;-35
2023/02/20 05:12:29;;;;;;;32.42;11.95;;;;;;;-143.48;98.68;118439.88;5096477;28;20029;-35
2023/02/20 05:14:55;;;;;;;36.38;11.48;;;;;;;-143.48;98.74;118439.88;5096459;28;20012;-34
2023/02/20 05:17:20;;;;;;;37.28;11.57;;;;;;;-143.48;98.40;118439.88;5096126;28;20027;-34
2023/02/20 05:19:46;;;;;;;39.03;12.23;;;;;;;-143.48;98.06;118439.88;5096326;28;20115;-35
2023/02/20 05:22:18;;;;;;;35.05;11.57;;;;;;;-143.48;98.32;118439.88;5095971;28;20024;-34
2023/02/20 05:24:44;;;;;;;29.50;11.82;;;;;;;-143.48;98.52;118439.88;5096511;28;20028;-35
2023/02/20 05:27:10;;;;;;;39.60;11.82;;;;;;;-143.48;98.01;118439.88;5095898;28;20020;-34
2023/02/20 05:29:35;;;;;;;26.52;11.32;;;;;;;-143.48;98.12;118439.88;5096415;28;20020;-34
2023/02/20 05:32:01;;;;;;;31.60;10.95;;;;;;;-143.48;98.03;118439.88;5095760;28;20382;-34
2023/02/20 05:34:26;;;;;;;35.72;11.23;;;;;;;-143.48;98.69;118439.88;5096087;28;20027;-35
2023/02/20 05:36:53;;;;;;;30.58;11.45;;;;;;;-143.48;97.88;118439.88;5096017;28;20024;-35
2023/02/20 05:39:18;;;;;;;31.65;11.63;;;;;;;-143.48;98.22;118439.88;5096471;28;20462;-35
2023/02/20 05:41:44;;;;;;;32.17;11.90;;;;;;;-143.48;97.63;118439.88;5095473;28;20050;-35
2023/02/20 05:44:09;;;;;;;27.73;11.57;;;;;;;-143.48;97.78;118439.88;5095448;28;20047;-35
2023/02/20 05:46:40;;;;;;;25.88;10.98;;;;;;;-143.48;97.68;118439.88;5095862;28;20020;-35
2023/02/20 05:49:05;;;;;;;30.33;10.68;;;;;;;-143.48;97.68;118439.88;5095763;28;20354;-48
2023/02/20 05:51:31;;;;;;;25.13;11.10;;;;;;;-143.48;97.83;118439.88;5095627;28;20073;-35
2023/02/20 05:53:56;;;;;;;38.10;12.00;;;;;;;-143.48;97.94;118439.88;5095591;28;20031;-35
2023/02/20 05:56:22;;;;;;;30.70;11.45;;;;;;;-143.48;98.01;118439.88;5095577;28;20026;-35
2023/02/20 05:58:48;;;;;;;34.92;11.85;;;;;;;-143.48;98.08;118439.88;5095338;28;20111;-35
2023/02/20 06:01:20;;;;;;;28.27;11.25;;;;;;;-143.48;97.76;118439.88;5095270;28;20063;-35
2023/02/20 06:03:46;;;;;;;27.55;11.15;;;;;;;-143.48;97.75;118439.88;5095374;28;20077;-35
2023/02/20 06:06:11;;;;;;;33.88;11.45;;;;;;;-143.48;97.51;118439.88;5095047;28;20454;-35
2023/02/20 06:08:38;;;;;;;30.95;11.13;;;;;;;-143.48;97.47;118439.88;5094007;28;20024;-36
2023/02/20 06:11:03;;;;;;;39.50;11.73;;;;;;;-143.48;97.87;118439.88;5095442;28;20402;-35
2023/02/20 06:13:28;;;;;;;30.33;11.20;;;;;;;-143.48;97.42;118439.88;5094689;28;20020;-35
2023/02/20 06:15:54;;;;;;;25.63;11.23;;;;;;;-143.48;97.57;118439.88;5094868;28;20056;-35
2023/02/20 06:18:19;;;;;;;30.05;11.80;;;;;;;-143.48;97.60;118439.88;5094852;28;20055;-35
2023/02/20 06:20:44;;;;;;;24.65;11.48;;;;;;;-143.48;97.25;118439.88;5094695;28;20402;-35
2023/02/20 06:23:10;;;;;;;27.08;11.10;;;;;;;-143.48;97.36;118439.88;5094544;28;20072;-34
2023/02/20 06:25:35;;;;;;;33.83;11.77;;;;;;;-143.48;97.15;118439.88;5094746;28;20055;-34
2023/02/20 06:28:00;;;;;;;33.17;11.38;;;;;;;-143.48;96.88;118439.88;5094480;28;20047;-34
2023/02/20 06:30:25;;;;;;;31.80;11.30;;;;;;;-143.48;97.02;118439.88;5094588;28;20032;-34
2023/02/20 06:32:57;;;;;;;31.05;11.13;;;;;;;-143.48;96.94;118439.88;5094766;28;20055;-34
2023/02/20 06:35:31;;;;;;;29.60;11.80;;;;;;;-143.48;96.91;118439.88;5095131;28;20458;-35
2023/02/20 06:37:56;;;;;;;28.95;11.45;;;;;;;-143.48;97.18;118439.88;5094904;28;20386;-35
2023/02/20 06:40:21;;;;;;;34.00;11.50;;;;;;;-143.48;97.55;118439.88;5094391;28;20028;-35
2023/02/20 06:42:47;;;;;;;27.95;10.98;;;;;;;-143.48;97.56;118439.88;5093168;28;20103;-35
2023/02/20 06:45:12;;;;;;;32.13;11.88;;;;;;;-143.48;97.17;118439.88;5093949;28;20044;-35
2023/02/20 06:47:37;;;;;;;29.35;11.43;;;;;;;-143.48;97.31;118439.88;5094134;28;20032;-35
2023/02/20 06:50:06;;;;;;;34.45;12.05;;;;;;;-143.48;97.50;118439.88;5094419;28;20433;-36
2023/02/20 06:52:32;;;;;;;31.73;11.63;;;;;;;-143.48;97.45;118439.88;5093298;28;20373;-35
2023/02/20 06:54:58;;;;;;;25.58;11.40;;;;;;;-143.48;97.04;118439.88;5094052;28;20111;-27
2023/02/20 06:57:23;;;;;;;32.58;11.57;;;;;;;-143.48;97.66;118439.88;5094012;28;20068;-27
2023/02/20 06:59:48;;;;;;;32.17;11.30;;;;;;;-143.48;97.41;118439.88;5093969;28;20023;-27
2023/02/20 07:02:15;;;;;;;33.30;11.00;;;;;;;-143.48;97.43;118439.88;5094251;28;20024;-27
2023/02/20 07:04:40;;;;;;;30.13;10.63;;;;;;;-143.48;97.30;118439.88;5094166;28;20480;-27
2023/02/20 07:07:09;;;;;;;32.55;10.80;;;;;;;-143.48;97.00;118439.88;5093908;28;20024;-27
2023/02/20 07:09:34;;;;;;;31.67;11.18;;;;;;;-143.48;97.37;118439.88;5094342;28;20056;-27
2023/02/20 07:12:00;;;;;;;32.03;11.05;;;;;;;-143.48;97.41;118439.88;5094532;28;20056;-27
2023/02/20 07:14:25;;;;;;;28.38;10.93;;;;;;;-143.48;97.06;118439.88;5093755;28;20071;-27
2023/02/20 07:16:50;;;;;;;29.60;10.52;;;;;;;-143.48;96.63;118439.88;5093996;28;20031;-27
2023/02/20 07:19:16;;;;;;;33.83;10.07;;;;;;;-143.48;97.24;118439.88;5092763;28;20093;-27
2023/02/20 07:21:41;;;;;;;31.63;9.85;;;;;;;-143.48;97.24;118439.88;5092271;28;20106;-27
2023/02/20 07:24:07;;;;;;;27.52;10.20;;;;;;;-143.48;97.24;118439.88;5093835;28;20081;-27
2023/02/20 07:26:32;;;;;;;28.55;11.25;;;;;;;-143.48;97.08;118439.88;5094085;28;20370;-27
2023/02/20 07:28:59;;;;;;;23.45;9.98;;;;;;;-143.48;96.85;118439.88;5094069;28;20043;-27
2023/02/20 07:31:25;;;;;;;39.28;10.95;;;;;;;-143.48;96.88;118439.88;5093511;28;20024;-27
2023/02/20 07:33:50;;;;;;;29.75;10.85;;;;;;;-143.48;97.11;118439.88;5093361;28;20392;-26
2023/02/20 07:36:16;;;;;;;29.65;10.32;;;;;;;-143.48;96.93;118439.88;5093417;28;20028;-27
2023/02/20 07:38:42;;;;;;;34.95;9.68;;;;;;;-143.48;96.54;118439.88;5093635;28;20032;-26
2023/02/20 07:41:09;;;;;;;33.90;10.15;;;;;;;-143.48;96.94;118439.88;5092146;28;20027;-28
2023/02/20 07:43:34;;;;;;;26.80;9.30;;;;;;;-143.48;96.34;118439.88;5092260;28;20052;-27
2023/02/20 07:46:00;;;;;;;25.48;9.85;;;;;;;-143.48;96.67;118439.88;5093691;28;20072;-27
2023/02/20 07:48:25;;;;;;;24.05;8.63;;;;;;;-143.48;96.42;118439.88;5093615;28;20455;-27
2023/02/20 07:50:51;;;;;;;30.70;9.13;;;;;;;-143.48;96.17;118439.88;5093359;28;20056;-27
2023/02/20 07:53:18;;;;;;;30.73;9.30;;;;;;;-143.48;96.19;118439.88;5093495;28;20028;-27
2023/02/20 07:55:44;;;;;;;25.83;8.98;;;;;;;-143.48;95.83;118439.88;5093120;28;20355;-27
2023/02/20 07:58:09;;;;;;;27.10;8.73;;;;;;;-143.48;96.12;118439.88;5091175;28;20096;-26
2023/02/20 08:00:35;;;;;;;19.75;8.15;;;;;;;-143.48;96.28;118439.88;5093406;28;20493;-28
2023/02/20 08:03:00;;;;;;;21.70;8.57;;;;;;;-143.48;96.16;118439.88;5093241;28;20459;-27
2023/02/20 08:05:26;;;;;;;23.83;8.85;;;;;;;-143.48;95.96;118439.88;5093038;28;20028;-27
2023/02/20 08:07:53;;;;;;;25.33;8.60;;;;;;;-143.48;95.66;118439.88;5093316;28;20059;-27
2023/02/20 08:10:23;;;;;;;29.30;8.27;;;;;;;-143.48;96.16;118439.88;5093206;28;20028;-27
2023/02/20 08:12:49;;;;;;;26.48;8.52;;;;;;;-143.48;96.27;118439.88;5093250;28;20111;-27
2023/02/20 08:15:17;;;;;;;26.08;8.77;;;;;;;-143.48;96.11;118439.88;5093114;28;20103;-27
2023/02/20 08:17:43;;;;;;;21.92;8.32;;;;;;;-143.48;96.23;118439.88;5093274;28;20033;-27
2023/02/20 08:20:10;;;;;;;24.60;8.90;;;;;;;-143.48;96.01;118439.88;5093378;28;20097;-27
2023/02/20 08:22:35;;;;;;;34.03;9.48;;;;;;;-143.48;95.98;118439.88;5092906;28;20031;-27
2023/02/20 08:25:03;;;;;;;28.42;9.18;;;;;;;-143.48;95.93;118439.88;5092769;28;20020;-27
2023/02/20 08:27:28;;;;;;;26.27;9.40;;;;;;;-143.48;95.83;118439.88;5092737;28;20103;-27
2023/02/20 08:29:54;;;;;;;28.73;9.13;;;;;;;-143.48;96.38;118439.88;5092474;28;20518;-27
2023/02/20 08:32:19;;;;;;;25.80;8.77;;;;;;;-143.48;95.70;118439.88;5096363;28;20077;-27
2023/02/20 08:34:44;;;;;;;25.17;8.88;;;;;;;-143.48;95.90;118439.88;5096413;28;20016;-27
2023/02/20 08:37:10;;;;;;;22.23;7.72;;;;;;;-143.48;95.74;118439.88;5095533;28;20460;-27
2023/02/20 08:39:36;;;;;;;28.67;9.05;;;;;;;-143.48;96.01;118439.88;5096768;28;20024;-27
2023/02/20 08:42:02;;;;;;;26.83;9.85;;;;;;;-143.48;96.16;118439.88;5096938;28;20020;-27
2023/02/20 08:44:27;;;;;;;26.50;8.95;;;;;;;-143.48;95.90;118439.88;5095186;28;20540;-28
2023/02/20 08:46:53;;;;;;;22.83;8.57;;;;;;;-143.48;95.94;118439.88;5096027;28;20020;-27
2023/02/20 08:49:19;;;;;;;28.42;9.15;;;;;;;-143.48;95.81;118439.88;5096688;28;20522;-27
2023/02/20 08:51:45;;;;;;;23.50;9.07;;;;;;;-143.48;95.67;118439.88;5095629;28;20031;-27
2023/02/20 08:54:11;;;;;;;26.35;9.02;;;;;;;-143.48;95.49;118439.88;5096628;28;20012;-27
2023/02/20 08:56:36;;;;;;;32.97;9.75;;;;;;;-143.48;95.93;118439.88;5096459;28;20027;-27
2023/02/20 08:59:02;;;;;;;19.75;9.88;;;;;;;-143.48;95.60;118439.88;5096859;28;20478;-28
2023/02/20 09:01:27;;;;;;;25.98;9.80;;;;;;;-143.48;95.82;118439.88;5096691;28;20095;-27
2023/02/20 09:03:52;;;;;;;26.67;10.80;;;;;;;-143.48;95.98;118439.88;5096686;28;20032;-29
2023/02/20 09:06:18;;;;;;;29.52;10.38;;;;;;;-143.48;96.58;118439.88;5096643;28;20462;-27
2023/02/20 09:08:43;;;;;;;30.88;9.88;;;;;;;-143.48;96.70;118439.88;5095026;28;20466;-27
2023/02/20 09:11:09;;;;;;;27.30;11.30;;;;;;;-143.48;96.24;118439.88;5096144;28;20032;-28
2023/02/20 09:13:43;;;;;;;32.70;10.38;;;;;;;-143.48;95.67;118439.88;5096519;28;20012;-27
2023/02/20 09:16:09;;;;;;;34.10;10.25;;;;;;;-143.48;95.57;118439.88;5096214;28;20024;-28
2023/02/20 09:18:35;;;;;;;25.05;10.98;;;;;;;-143.48;95.72;118439.88;5094832;28;20024;-28
2023/02/20 09:21:00;;;;;;;25.20;10.35;;;;;;;-143.48;95.58;118439.88;5096409;28;20024;-27
2023/02/20 09:23:26;;;;;;;24.42;10.63;;;;;;;-143.48;95.21;118439.88;5095947;28;20424;-28
2023/02/20 09:25:52;;;;;;;26.45;10.20;;;;;;;-143.48;95.09;118439.88;5096208;28;20024;-27
2023/02/20 09:28:18;;;;;;;20.13;10.02;;;;;;;-143.48;95.09;118439.88;5096092;28;20023;-27
2023/02/20 09:30:43;;;;;;;25.80;10.75;;;;;;;-143.48;95.05;118439.88;5095871;28;20040;-27
2023/02/20 09:33:08;;;;;;;24.23;10.27;;;;;;;-143.48;94.82;118439.88;5096014;28;20060;-28
2023/02/20 09:35:34;;;;;;;20.27;10.10;;;;;;;-143.48;94.67;118439.88;5095985;28;20020;-27
2023/02/20 09:38:00;;;;;;;28.58;10.30;;;;;;;-143.48;94.60;118439.88;5096047;28;20024;-27
2023/02/20 09:40:28;;;;;;;21.40;10.27;;;;;;;-143.48;94.59;118439.88;5095870;28;20050;-28
2023/02/20 09:43:31;;;;;;;25.35;10.23;;;;;;;-143.48;94.28;118439.88;5095510;28;20020;-27
2023/02/20 09:46:09;;;;;;;22.67;9.98;;;;;;;-143.48;93.93;118439.88;5095583;28;20044;-27
2023/02/20 09:48:34;;;;;;;19.10;9.43;;;;;;;-143.48;93.87;118439.88;5096330;28;20024;-27
2023/02/20 09:51:04;;;;;;;20.50;9.88;;;;;;;-143.48;93.80;118439.88;5095782;28;20035;-27
2023/02/20 09:53:50;;;;;;;22.85;9.05;;;;;;;-143.48;93.65;118439.88;5096011;28;20523;-27
2023/02/20 09:56:20;;;;;;;19.45;8.73;;;;;;;-143.48;93.70;118439.88;5095607;28;20023;-28
2023/02/20 09:59:04;;;;;;;18.88;7.95;;;;;;;-143.48;93.87;118439.88;5095618;28;20061;-28
2023/02/20 10:01:31;;;;;;;17.67;7.88;;;;;;;-143.48;93.87;118439.88;5095756;28;20030;-26
2023/02/20 10:04:37;;;;;;;18.23;8.68;;;;;;;-143.48;93.63;118439.88;5095191;28;20028;-26
2023/02/20 10:07:40;;;;;;;20.45;7.78;;;;;;;-143.48;92.99;118439.88;5083880;28;20413;-27
2023/02/20 10:10:26;;;;;;;16.17;7.63;;;;;;;-143.48;93.27;118439.88;5092566;28;20067;-27
2023/02/20 10:13:10;;;;;;;16.40;7.60;;;;;;;-143.48;93.00;118439.88;5095342;28;20114;-27
2023/02/20 10:16:14;;;;;;;16.50;7.60;;;;;;;-143.48;93.27;118439.88;5094976;28;20062;-27
2023/02/20 10:18:48;;;;;;;16.73;7.38;;;;;;;-143.48;93.02;118439.88;5094740;28;20035;-27
2023/02/20 10:21:36;;;;;;;17.58;7.70;;;;;;;-143.48;92.86;118439.88;5095088;28;20035;-28
2023/02/20 10:24:39;;;;;;;18.60;7.20;;;;;;;-143.48;92.45;118439.88;5094643;28;20066;-28
2023/02/20 10:27:34;;;;;;;17.95;7.68;;;;;;;-143.48;92.90;118439.88;5094817;28;20028;-28
2023/02/20 10:30:04;;;;;;;24.00;7.95;;;;;;;-143.48;92.64;118439.88;5094657;28;20020;-27
2023/02/20 10:32:38;;;;;;;17.00;7.75;;;;;;;-143.48;92.70;118439.88;5094638;28;20099;-28
2023/02/20 10:35:23;;;;;;;17.25;7.43;;;;;;;-143.48;92.53;118439.88;5095104;28;20374;-27
2023/02/20 10:37:54;;;;;;;17.65;7.88;;;;;;;-143.48;91.98;118439.88;5094820;28;20020;-28
2023/02/20 10:40:23;;;;;;;17.48;7.57;;;;;;;-143.48;92.67;118439.88;5094732;28;20351;-27
2023/02/20 10:43:09;;;;;;;16.85;6.85;;;;;;;-143.48;91.98;118439.88;5094470;28;20027;-27
2023/02/20 10:45:55;;;;;;;12.25;6.30;;;;;;;-143.48;92.32;118439.88;5094328;28;20046;-26
2023/02/20 10:48:25;;;;;;;13.85;7.32;;;;;;;-143.48;92.48;118439.88;5094680;28;20032;-26
2023/02/20 10:51:05;;;;;;;18.70;7.13;;;;;;;-143.48;92.15;118439.88;5094134;28;20092;-27
2023/02/20 10:53:44;;;;;;;13.68;6.88;;;;;;;-143.48;92.68;118439.88;5093841;28;20137;-26
2023/02/20 10:56:29;;;;;;;15.27;7.30;;;;;;;-143.48;92.54;118439.88;5094555;28;20043;-27
2023/02/20 10:59:12;;;;;;;14.68;6.60;;;;;;;-143.48;92.08;118439.88;5094248;28;20027;-27
2023/02/20 11:01:39;;;;;;;15.52;7.13;;;;;;;-143.48;92.68;118439.88;5094337;28;20120;-27
2023/02/20 11:04:19;;;;;;;15.68;7.18;;;;;;;-143.48;92.24;118439.88;5094060;28;20081;-26
2023/02/20 11:06:52;;;;;;;25.05;7.50;;;;;;;-143.48;92.36;118439.88;5094423;28;20016;-27
2023/02/20 11:09:18;;;;;;;14.75;7.10;;;;;;;-143.48;92.02;118439.88;5094070;28;20024;-27
2023/02/20 11:11:45;;;;;;;16.15;7.45;;;;;;;-143.48;91.81;118439.88;5093944;28;20382;-27
2023/02/20 11:14:14;;;;;;;16.45;7.32;;;;;;;-143.48;92.17;118439.88;5094420;28;20013;-27
2023/02/20 11:17:03;;;;;;;22.92;8.55;;;;;;;-143.48;92.71;118439.88;5094349;28;20031;-27
2023/02/20 11:19:54;;;;;;;15.50;7.13;;;;;;;-143.48;92.13;118439.88;5094372;28;20028;-31